Time;durP1;ratioP1;P1;durP2;ratioP2;P2;SDS_P1;SDS_P2;PMS_P1;PMS_P2;Temp;Humidity;BMP_temperature;BMP_pressure;BME280_temperature;BME280_humidity;BME280_pressure;Samples;Min_cycle;Max_cycle;Signal;HPM_P1;HPM_P2
2020/12/19 00:01:05;;;;;;;13.82;6.00;;;;;;;;;;2058721;28;20047;-78
2020/12/19 00:02:23;;;;;;;20.05;5.95;;;;;;;;;;2061624;28;20026;-78
2020/12/19 00:03:43;;;;;;;12.57;5.35;;;;;;;;;;2062883;28;20038;-79
2020/12/19 00:05:02;;;;;;;9.65;5.65;;;;;;;;;;2061661;28;21050;-80
2020/12/19 00:06:21;;;;;;;18.00;6.25;;;;;;;;;;2063152;28;20018;-78
2020/12/19 00:07:39;;;;;;;10.20;5.30;;;;;;;;;;2065167;28;20058;-78
2020/12/19 00:08:58;;;;;;;14.23;6.40;;;;;;;;;;2064820;28;20437;-77
2020/12/19 00:10:17;;;;;;;17.33;6.32;;;;;;;;;;2062161;28;20430;-76
2020/12/19 00:11:36;;;;;;;13.00;5.35;;;;;;;;;;2062657;28;20061;-78
2020/12/19 00:12:59;;;;;;;14.18;6.20;;;;;;;;;;2060803;28;20082;-75
2020/12/19 00:14:18;;;;;;;;;;;;;;;;;;2062256;28;20034;-78
2020/12/19 00:15:37;;;;;;;11.90;5.05;;;;;;;;;;2064063;28;19909;-78
2020/12/19 00:16:56;;;;;;;14.30;5.88;;;;;;;;;;2063104;28;20027;-78
2020/12/19 00:18:15;;;;;;;9.77;5.53;;;;;;;;;;2065636;28;20026;-78
2020/12/19 00:19:34;;;;;;;11.82;5.45;;;;;;;;;;2061272;28;20522;-77
2020/12/19 00:20:53;;;;;;;10.93;6.00;;;;;;;;;;2061949;28;20026;-77
2020/12/19 00:22:12;;;;;;;10.20;5.80;;;;;;;;;;2060136;28;22169;-77
2020/12/19 00:23:31;;;;;;;16.45;5.85;;;;;;;;;;2061085;28;20485;-77
2020/12/19 00:24:50;;;;;;;13.38;6.20;;;;;;;;;;2059056;28;20039;-78
2020/12/19 00:26:09;;;;;;;11.02;5.30;;;;;;;;;;2061303;28;20034;-78
2020/12/19 00:27:27;;;;;;;11.43;5.38;;;;;;;;;;2064416;28;20034;-77
2020/12/19 00:28:46;;;;;;;9.45;5.78;;;;;;;;;;2065268;28;20042;-78
2020/12/19 00:30:06;;;;;;;9.13;5.25;;;;;;;;;;2059375;28;20022;-78
2020/12/19 00:31:25;;;;;;;13.75;5.15;;;;;;;;;;2059148;28;20058;-78
2020/12/19 00:32:43;;;;;;;11.90;6.20;;;;;;;;;;2063324;28;20101;-77
2020/12/19 00:34:02;;;;;;;9.75;5.32;;;;;;;;;;2062288;28;20042;-80
2020/12/19 00:35:21;;;;;;;9.23;5.70;;;;;;;;;;2062182;28;20050;-79
2020/12/19 00:36:40;;;;;;;9.45;6.20;;;;;;;;;;2057357;28;20031;-79
2020/12/19 00:37:59;;;;;;;14.52;6.35;;;;;;;;;;2055342;28;20031;-78
2020/12/19 00:39:18;;;;;;;15.32;6.00;;;;;;;;;;2063871;28;20038;-78
2020/12/19 00:40:37;;;;;;;14.60;6.13;;;;;;;;;;2063351;28;20027;-79
2020/12/19 00:41:56;;;;;;;10.65;5.93;;;;;;;;;;2062725;28;20038;-79
2020/12/19 00:43:15;;;;;;;12.80;5.35;;;;;;;;;;2062940;28;20022;-79
2020/12/19 00:44:34;;;;;;;9.32;5.32;;;;;;;;;;2064674;28;20440;-80
2020/12/19 00:45:53;;;;;;;10.25;5.50;;;;;;;;;;2065151;28;20038;-79
2020/12/19 00:47:11;;;;;;;12.68;5.10;;;;;;;;;;2065191;28;20105;-79
2020/12/19 00:48:30;;;;;;;10.15;5.55;;;;;;;;;;2064551;28;20038;-79
2020/12/19 00:49:49;;;;;;;12.88;5.50;;;;;;;;;;2063635;28;20034;-79
2020/12/19 00:51:12;;;;;;;10.43;6.35;;;;;;;;;;2061265;28;20026;-79
2020/12/19 00:52:32;;;;;;;10.15;5.93;;;;;;;;;;2064769;28;20023;-78
2020/12/19 00:53:51;;;;;;;6.43;5.50;;;;;;;;;;2064590;28;20018;-78
2020/12/19 00:55:09;;;;;;;8.30;5.18;;;;;;;;;;2060025;28;20018;-78
2020/12/19 00:56:28;;;;;;;9.43;5.65;;;;;;;;;;2057507;28;20031;-76
2020/12/19 00:57:48;;;;;;;12.02;5.68;;;;;;;;;;2062726;28;20030;-78
2020/12/19 00:59:07;;;;;;;11.23;5.85;;;;;;;;;;2062606;28;20109;-77
2020/12/19 01:00:25;;;;;;;15.10;5.53;;;;;;;;;;2061898;28;20034;-78
2020/12/19 01:01:45;;;;;;;13.20;5.65;;;;;;;;;;2064319;28;20039;-77
2020/12/19 01:03:04;;;;;;;13.52;5.18;;;;;;;;;;2059492;28;20124;-79
2020/12/19 01:04:23;;;;;;;9.48;5.28;;;;;;;;;;2062031;28;20124;-76
2020/12/19 01:05:42;;;;;;;12.75;5.90;;;;;;;;;;2059201;28;20031;-77
2020/12/19 01:07:01;;;;;;;12.32;5.65;;;;;;;;;;2059834;28;20074;-78
2020/12/19 01:08:20;;;;;;;23.25;6.03;;;;;;;;;;2063320;28;20442;-78
2020/12/19 01:09:38;;;;;;;12.18;6.22;;;;;;;;;;2060925;28;20472;-80
2020/12/19 01:10:57;;;;;;;10.65;6.03;;;;;;;;;;2057081;28;20078;-77
2020/12/19 01:12:16;;;;;;;10.50;5.85;;;;;;;;;;2064573;28;20018;-75
2020/12/19 01:13:35;;;;;;;11.52;4.97;;;;;;;;;;2062990;28;20106;-78
2020/12/19 01:14:54;;;;;;;15.32;5.97;;;;;;;;;;2065418;28;20379;-79
2020/12/19 01:16:15;;;;;;;16.25;6.15;;;;;;;;;;2064019;28;20023;-76
2020/12/19 01:17:33;;;;;;;14.05;6.18;;;;;;;;;;2061090;28;20023;-79
2020/12/19 01:18:53;;;;;;;11.27;5.95;;;;;;;;;;2056661;28;20044;-77
2020/12/19 01:20:11;;;;;;;13.23;6.40;;;;;;;;;;2064515;28;20023;-78
2020/12/19 01:21:31;;;;;;;12.38;5.30;;;;;;;;;;2063211;28;20027;-78
2020/12/19 01:22:50;;;;;;;9.82;5.38;;;;;;;;;;2061758;28;20105;-75
2020/12/19 01:24:09;;;;;;;8.25;5.72;;;;;;;;;;2060954;28;20066;-78
2020/12/19 01:25:28;;;;;;;10.55;5.25;;;;;;;;;;2061217;28;20495;-78
2020/12/19 01:26:48;;;;;;;14.18;5.95;;;;;;;;;;2055191;28;20135;-76
2020/12/19 01:28:06;;;;;;;12.90;6.20;;;;;;;;;;2070673;28;20417;-78
2020/12/19 01:29:25;;;;;;;19.70;5.63;;;;;;;;;;2065093;28;20034;-78
2020/12/19 01:30:44;;;;;;;13.73;6.40;;;;;;;;;;2059840;28;20026;-78
2020/12/19 01:32:03;;;;;;;14.27;6.15;;;;;;;;;;2064328;28;20489;-76
2020/12/19 01:33:22;;;;;;;12.60;5.90;;;;;;;;;;2063222;28;20422;-75
2020/12/19 01:34:40;;;;;;;15.75;6.90;;;;;;;;;;2058554;28;20034;-77
2020/12/19 01:35:59;;;;;;;9.48;5.53;;;;;;;;;;2062282;28;20034;-77
2020/12/19 01:37:18;;;;;;;10.80;5.30;;;;;;;;;;2064603;28;20483;-77
2020/12/19 01:38:37;;;;;;;11.23;5.50;;;;;;;;;;2058894;28;20487;-77
2020/12/19 01:39:56;;;;;;;9.27;5.75;;;;;;;;;;2062989;28;20031;-77
2020/12/19 01:41:15;;;;;;;12.82;5.68;;;;;;;;;;2062275;28;20026;-76
2020/12/19 01:42:34;;;;;;;13.63;5.45;;;;;;;;;;2059806;28;20038;-78
2020/12/19 01:43:58;;;;;;;15.50;5.72;;;;;;;;;;2063280;28;20483;-77
2020/12/19 01:45:16;;;;;;;9.82;5.22;;;;;;;;;;2064372;28;20038;-76
2020/12/19 01:46:38;;;;;;;12.30;5.80;;;;;;;;;;2063235;28;20081;-76
2020/12/19 01:47:57;;;;;;;12.20;5.82;;;;;;;;;;2064393;28;20042;-78
2020/12/19 01:49:17;;;;;;;12.18;5.50;;;;;;;;;;2059410;28;20031;-77
2020/12/19 01:50:35;;;;;;;13.63;6.53;;;;;;;;;;2055020;28;20031;-79
2020/12/19 01:51:58;;;;;;;16.20;7.07;;;;;;;;;;2060537;28;20038;-78
2020/12/19 01:53:17;;;;;;;;;;;;;;;;;;2063022;28;20019;-78
2020/12/19 01:54:36;;;;;;;11.60;5.95;;;;;;;;;;2063930;28;20357;-78
2020/12/19 01:55:56;;;;;;;13.38;6.45;;;;;;;;;;2062808;28;20125;-77
2020/12/19 01:57:17;;;;;;;11.90;5.63;;;;;;;;;;2060170;28;20117;-78
2020/12/19 01:58:36;;;;;;;10.35;5.70;;;;;;;;;;2061143;28;20110;-77
2020/12/19 01:59:55;;;;;;;10.38;5.85;;;;;;;;;;2058100;28;20039;-77
2020/12/19 02:01:15;;;;;;;10.40;6.10;;;;;;;;;;2058665;28;20067;-78
2020/12/19 02:02:33;;;;;;;15.68;6.40;;;;;;;;;;2060572;28;20041;-78
2020/12/19 02:03:52;;;;;;;16.85;6.32;;;;;;;;;;2062764;28;20038;-78
2020/12/19 02:05:11;;;;;;;10.43;5.55;;;;;;;;;;2059118;28;20034;-78
2020/12/19 02:06:30;;;;;;;14.73;6.25;;;;;;;;;;2059261;28;20409;-78
2020/12/19 02:07:49;;;;;;;11.23;5.88;;;;;;;;;;2058058;28;20378;-75
2020/12/19 02:09:08;;;;;;;12.60;6.07;;;;;;;;;;2059956;28;20117;-77
2020/12/19 02:10:27;;;;;;;13.77;6.35;;;;;;;;;;2061169;28;20034;-78
2020/12/19 02:11:46;;;;;;;8.63;6.05;;;;;;;;;;2063779;28;20019;-78
2020/12/19 02:13:05;;;;;;;15.75;6.80;;;;;;;;;;2065879;28;20018;-79
2020/12/19 02:14:24;;;;;;;13.05;6.55;;;;;;;;;;2065026;28;20022;-78
2020/12/19 02:15:44;;;;;;;17.80;6.55;;;;;;;;;;2062996;28;20026;-78
2020/12/19 02:17:07;;;;;;;19.42;6.80;;;;;;;;;;2058853;28;20550;-75
2020/12/19 02:18:26;;;;;;;13.63;6.55;;;;;;;;;;2062816;28;20030;-78
2020/12/19 02:19:45;;;;;;;14.02;6.68;;;;;;;;;;2063725;28;20042;-77
2020/12/19 02:21:04;;;;;;;13.63;6.72;;;;;;;;;;2065744;28;20034;-78
2020/12/19 02:22:23;;;;;;;12.02;6.60;;;;;;;;;;2066635;28;20022;-78
2020/12/19 02:23:42;;;;;;;15.88;7.15;;;;;;;;;;2066856;28;20525;-78
2020/12/19 02:25:01;;;;;;;11.75;6.28;;;;;;;;;;2060712;28;20050;-77
2020/12/19 02:26:20;;;;;;;13.52;5.93;;;;;;;;;;2063302;28;20070;-78
2020/12/19 02:27:39;;;;;;;13.80;7.05;;;;;;;;;;2059960;28;20038;-78
2020/12/19 02:28:58;;;;;;;13.95;6.80;;;;;;;;;;2063820;28;20113;-78
2020/12/19 02:30:17;;;;;;;16.45;6.93;;;;;;;;;;2065137;28;20494;-78
2020/12/19 02:31:36;;;;;;;12.40;7.25;;;;;;;;;;2062265;28;20486;-78
2020/12/19 02:32:55;;;;;;;20.35;7.43;;;;;;;;;;2063467;28;20113;-77
2020/12/19 02:34:14;;;;;;;13.70;7.07;;;;;;;;;;2065370;28;20023;-78
2020/12/19 02:35:32;;;;;;;10.93;6.10;;;;;;;;;;2062201;28;20030;-77
2020/12/19 02:36:51;;;;;;;13.55;6.15;;;;;;;;;;2060546;28;20074;-75
2020/12/19 02:38:10;;;;;;;12.95;6.60;;;;;;;;;;2056492;28;20031;-74
2020/12/19 02:39:29;;;;;;;11.77;6.65;;;;;;;;;;2058389;28;20026;-77
2020/12/19 02:40:47;;;;;;;17.20;6.65;;;;;;;;;;2062583;28;20027;-77
2020/12/19 02:42:06;;;;;;;15.00;6.57;;;;;;;;;;2064407;28;20026;-75
2020/12/19 02:43:25;;;;;;;15.18;6.93;;;;;;;;;;2064796;28;20035;-77
2020/12/19 02:44:44;;;;;;;16.83;6.60;;;;;;;;;;2066523;28;20418;-76
2020/12/19 02:46:02;;;;;;;11.48;7.03;;;;;;;;;;2059903;28;20038;-76
2020/12/19 02:47:21;;;;;;;11.70;6.43;;;;;;;;;;2064763;28;20034;-76
2020/12/19 02:48:40;;;;;;;15.60;7.50;;;;;;;;;;2060475;28;20038;-76
2020/12/19 02:49:59;;;;;;;10.90;6.72;;;;;;;;;;2056436;28;20129;-76
2020/12/19 02:51:18;;;;;;;15.68;6.90;;;;;;;;;;2064823;28;20522;-77
2020/12/19 02:52:37;;;;;;;10.73;6.93;;;;;;;;;;2062876;28;20039;-77
2020/12/19 02:53:56;;;;;;;19.05;7.20;;;;;;;;;;2061409;28;20031;-77
2020/12/19 02:55:15;;;;;;;12.52;6.60;;;;;;;;;;2063873;28;20018;-76
2020/12/19 02:56:34;;;;;;;13.02;7.07;;;;;;;;;;2058159;28;20383;-75
2020/12/19 02:57:53;;;;;;;13.20;6.07;;;;;;;;;;2065058;28;20069;-77
2020/12/19 02:59:12;;;;;;;16.38;6.63;;;;;;;;;;2057230;28;20035;-75
2020/12/19 03:00:31;;;;;;;15.52;7.43;;;;;;;;;;2059599;28;20030;-76
2020/12/19 03:01:49;;;;;;;13.73;6.30;;;;;;;;;;2065385;28;20038;-76
2020/12/19 03:03:08;;;;;;;15.20;6.40;;;;;;;;;;2069125;28;20034;-77
2020/12/19 03:04:27;;;;;;;17.48;6.63;;;;;;;;;;2066244;28;20458;-76
2020/12/19 03:05:46;;;;;;;15.93;6.30;;;;;;;;;;2062902;28;20034;-76
2020/12/19 03:07:04;;;;;;;14.80;6.28;;;;;;;;;;2062800;28;20034;-76
2020/12/19 03:08:23;;;;;;;10.13;6.05;;;;;;;;;;2063573;28;20398;-76
2020/12/19 03:09:42;;;;;;;17.38;6.45;;;;;;;;;;2064696;28;20038;-77
2020/12/19 03:11:01;;;;;;;14.15;6.50;;;;;;;;;;2064859;28;20374;-76
2020/12/19 03:12:20;;;;;;;9.00;5.80;;;;;;;;;;2064974;28;20022;-76
2020/12/19 03:13:39;;;;;;;13.38;6.63;;;;;;;;;;2060533;28;20031;-75
2020/12/19 03:14:58;;;;;;;14.82;6.55;;;;;;;;;;2060981;28;20019;-76
2020/12/19 03:16:17;;;;;;;19.98;6.72;;;;;;;;;;2065095;28;20484;-76
2020/12/19 03:17:36;;;;;;;11.55;6.18;;;;;;;;;;2065299;28;20390;-77
2020/12/19 03:18:55;;;;;;;13.23;6.03;;;;;;;;;;2065640;28;20030;-76
2020/12/19 03:20:14;;;;;;;13.25;6.30;;;;;;;;;;2057625;28;20030;-73
2020/12/19 03:21:33;;;;;;;11.73;6.82;;;;;;;;;;2061823;28;20065;-73
2020/12/19 03:22:52;;;;;;;9.23;6.03;;;;;;;;;;2065597;28;20050;-75
2020/12/19 03:24:11;;;;;;;12.75;7.53;;;;;;;;;;2064504;28;20026;-75
2020/12/19 03:25:30;;;;;;;11.27;6.22;;;;;;;;;;2063110;28;20018;-76
2020/12/19 03:26:48;;;;;;;13.73;7.22;;;;;;;;;;2061617;28;20038;-75
2020/12/19 03:28:08;;;;;;;11.65;6.25;;;;;;;;;;2065873;28;20018;-75
2020/12/19 03:29:26;;;;;;;9.50;6.32;;;;;;;;;;2062618;28;20506;-74
2020/12/19 03:30:45;;;;;;;11.50;7.32;;;;;;;;;;2057375;28;20034;-75
2020/12/19 03:32:04;;;;;;;12.07;7.15;;;;;;;;;;2062524;28;20026;-75
2020/12/19 03:33:23;;;;;;;11.00;6.20;;;;;;;;;;2061411;28;20026;-73
2020/12/19 03:34:41;;;;;;;17.98;6.45;;;;;;;;;;2059862;28;20031;-75
2020/12/19 03:36:00;;;;;;;16.63;7.35;;;;;;;;;;2056483;28;20498;-73
2020/12/19 03:37:19;;;;;;;15.57;7.30;;;;;;;;;;2053669;28;20039;-74
2020/12/19 03:38:38;;;;;;;17.98;7.68;;;;;;;;;;2062463;28;20023;-74
2020/12/19 03:39:57;;;;;;;12.32;6.60;;;;;;;;;;2061814;28;20459;-76
2020/12/19 03:41:16;;;;;;;12.93;7.10;;;;;;;;;;2062994;28;20066;-75
2020/12/19 03:42:35;;;;;;;15.13;7.18;;;;;;;;;;2061506;28;20042;-75
2020/12/19 03:43:54;;;;;;;15.75;7.22;;;;;;;;;;2060914;28;20022;-74
2020/12/19 03:45:13;;;;;;;16.92;7.55;;;;;;;;;;2063103;28;20023;-75
2020/12/19 03:46:32;;;;;;;15.63;8.10;;;;;;;;;;2062321;28;20445;-76
2020/12/19 03:47:51;;;;;;;11.52;7.40;;;;;;;;;;2059664;28;20026;-75
2020/12/19 03:49:10;;;;;;;21.52;8.07;;;;;;;;;;2052893;28;20446;-75
2020/12/19 03:50:28;;;;;;;17.27;8.23;;;;;;;;;;2060242;28;20023;-75
2020/12/19 03:51:47;;;;;;;17.77;8.18;;;;;;;;;;2064891;28;20034;-75
2020/12/19 03:53:06;;;;;;;16.73;8.00;;;;;;;;;;2062604;28;20026;-75
2020/12/19 03:54:25;;;;;;;13.27;8.32;;;;;;;;;;2060777;28;20434;-75
2020/12/19 03:55:44;;;;;;;15.27;8.00;;;;;;;;;;2061971;28;20062;-74
2020/12/19 03:57:03;;;;;;;15.88;8.05;;;;;;;;;;2059975;28;20030;-74
2020/12/19 03:58:22;;;;;;;19.13;8.43;;;;;;;;;;2064836;28;20022;-74
2020/12/19 03:59:41;;;;;;;17.80;8.02;;;;;;;;;;2057847;28;20062;-73
2020/12/19 04:01:00;;;;;;;20.63;8.63;;;;;;;;;;2062573;28;20027;-75
2020/12/19 04:02:19;;;;;;;16.35;8.18;;;;;;;;;;2062457;28;20042;-75
2020/12/19 04:03:37;;;;;;;18.20;8.45;;;;;;;;;;2062934;28;20038;-75
2020/12/19 04:04:56;;;;;;;15.13;8.13;;;;;;;;;;2057725;28;20022;-74
2020/12/19 04:06:15;;;;;;;16.95;8.02;;;;;;;;;;2061093;28;20030;-75
2020/12/19 04:07:34;;;;;;;13.25;8.00;;;;;;;;;;2060252;28;20034;-75
2020/12/19 04:08:53;;;;;;;15.30;8.38;;;;;;;;;;2063462;28;20395;-76
2020/12/19 04:10:12;;;;;;;19.77;8.63;;;;;;;;;;2064109;28;20026;-76
2020/12/19 04:11:31;;;;;;;16.65;8.23;;;;;;;;;;2063217;28;20018;-76
2020/12/19 04:12:50;;;;;;;14.43;7.70;;;;;;;;;;2062561;28;20418;-76
2020/12/19 04:14:09;;;;;;;18.52;8.00;;;;;;;;;;2060289;28;20331;-76
2020/12/19 04:15:28;;;;;;;12.18;7.43;;;;;;;;;;2061554;28;20027;-75
2020/12/19 04:16:47;;;;;;;17.63;7.65;;;;;;;;;;2062202;28;20027;-77
2020/12/19 04:18:06;;;;;;;13.07;8.27;;;;;;;;;;2065085;28;20034;-76
2020/12/19 04:19:25;;;;;;;15.65;8.88;;;;;;;;;;2064577;28;20026;-77
2020/12/19 04:20:44;;;;;;;13.35;7.82;;;;;;;;;;2060575;28;20026;-77
2020/12/19 04:22:03;;;;;;;14.77;7.97;;;;;;;;;;2058078;28;20531;-77
2020/12/19 04:23:22;;;;;;;15.52;7.95;;;;;;;;;;2063417;28;20034;-77
2020/12/19 04:24:42;;;;;;;12.38;8.45;;;;;;;;;;2060492;28;20422;-77
2020/12/19 04:26:01;;;;;;;20.77;9.07;;;;;;;;;;2059505;28;20047;-78
2020/12/19 04:27:19;;;;;;;15.57;8.73;;;;;;;;;;2061423;28;20038;-76
2020/12/19 04:28:38;;;;;;;19.52;8.73;;;;;;;;;;2064874;28;20475;-76
2020/12/19 04:29:57;;;;;;;21.10;10.00;;;;;;;;;;2063022;28;20038;-74
2020/12/19 04:31:16;;;;;;;15.95;8.32;;;;;;;;;;2061837;28;20122;-78
2020/12/19 04:32:36;;;;;;;15.40;7.85;;;;;;;;;;2064408;28;20018;-77
2020/12/19 04:33:55;;;;;;;15.15;8.68;;;;;;;;;;2062913;28;20043;-76
2020/12/19 04:35:14;;;;;;;17.45;8.60;;;;;;;;;;2062045;28;20034;-76
2020/12/19 04:36:33;;;;;;;15.25;8.45;;;;;;;;;;2062860;28;20027;-74
2020/12/19 04:37:52;;;;;;;14.82;8.57;;;;;;;;;;2063639;28;20454;-78
2020/12/19 04:39:11;;;;;;;15.15;8.93;;;;;;;;;;2059908;28;20446;-76
2020/12/19 04:40:30;;;;;;;21.85;9.38;;;;;;;;;;2063032;28;20093;-74
2020/12/19 04:41:49;;;;;;;16.70;8.75;;;;;;;;;;2062922;28;20065;-71
2020/12/19 04:43:13;;;;;;;12.88;8.73;;;;;;;;;;2064383;28;20467;-77
2020/12/19 04:44:32;;;;;;;16.17;8.32;;;;;;;;;;2061911;28;20027;-75
2020/12/19 04:45:51;;;;;;;18.08;9.80;;;;;;;;;;2063261;28;20035;-76
2020/12/19 04:47:10;;;;;;;15.30;9.25;;;;;;;;;;2063483;28;20034;-76
2020/12/19 04:48:29;;;;;;;18.85;8.13;;;;;;;;;;2061529;28;20030;-76
2020/12/19 04:49:49;;;;;;;15.35;9.10;;;;;;;;;;2063250;28;20030;-77
2020/12/19 04:51:08;;;;;;;16.70;8.80;;;;;;;;;;2063726;28;20490;-76
2020/12/19 04:52:27;;;;;;;13.32;9.60;;;;;;;;;;2062806;28;20109;-73
2020/12/19 04:53:46;;;;;;;13.82;8.75;;;;;;;;;;2062500;28;20037;-76
2020/12/19 04:55:06;;;;;;;11.18;8.82;;;;;;;;;;2063576;28;20491;-77
2020/12/19 04:56:27;;;;;;;15.38;8.90;;;;;;;;;;2063279;28;20026;-78
2020/12/19 04:57:47;;;;;;;17.55;9.52;;;;;;;;;;2062686;28;20019;-75
2020/12/19 04:59:06;;;;;;;13.63;9.00;;;;;;;;;;2060620;28;20038;-75
2020/12/19 05:00:24;;;;;;;17.33;9.57;;;;;;;;;;2058386;28;20034;-76
2020/12/19 05:01:43;;;;;;;15.93;9.07;;;;;;;;;;2064126;28;20034;-76
2020/12/19 05:03:03;;;;;;;13.73;8.32;;;;;;;;;;2057578;28;20034;-74
2020/12/19 05:04:22;;;;;;;14.60;8.80;;;;;;;;;;2062493;28;20104;-76
2020/12/19 05:05:42;;;;;;;13.88;8.13;;;;;;;;;;2062724;28;20030;-76
2020/12/19 05:07:02;;;;;;;14.40;8.75;;;;;;;;;;2063200;28;20023;-76
2020/12/19 05:08:20;;;;;;;15.13;8.75;;;;;;;;;;2064222;28;20384;-76
2020/12/19 05:09:41;;;;;;;14.95;9.30;;;;;;;;;;2061744;28;20026;-74
2020/12/19 05:10:59;;;;;;;16.25;8.63;;;;;;;;;;2063742;28;20042;-75
2020/12/19 05:12:18;;;;;;;14.45;8.90;;;;;;;;;;2052859;28;20038;-76
2020/12/19 05:13:38;;;;;;;18.67;10.05;;;;;;;;;;2062886;28;20491;-75
2020/12/19 05:14:56;;;;;;;12.30;9.32;;;;;;;;;;2057963;28;20038;-75
2020/12/19 05:16:16;;;;;;;18.35;9.27;;;;;;;;;;2062309;28;20383;-75
2020/12/19 05:17:35;;;;;;;16.40;9.55;;;;;;;;;;2062343;28;20026;-77
2020/12/19 05:18:54;;;;;;;12.60;8.98;;;;;;;;;;2057065;28;20042;-77
2020/12/19 05:20:13;;;;;;;20.75;9.38;;;;;;;;;;2062940;28;20019;-78
2020/12/19 05:21:43;;;;;;;19.35;10.25;;;;;;;;;;2064564;28;20034;-78
2020/12/19 05:23:06;;;;;;;18.73;9.43;;;;;;;;;;2059767;28;20048;-78
2020/12/19 05:24:29;;;;;;;15.23;9.57;;;;;;;;;;2056798;28;20030;-74
2020/12/19 05:25:48;;;;;;;18.95;9.15;;;;;;;;;;2061171;28;20034;-78
2020/12/19 05:27:09;;;;;;;17.60;9.40;;;;;;;;;;2063368;28;20046;-78
2020/12/19 05:28:28;;;;;;;16.98;9.18;;;;;;;;;;2062652;28;20022;-77
2020/12/19 05:29:49;;;;;;;19.55;10.35;;;;;;;;;;2062343;28;20034;-78
2020/12/19 05:31:09;;;;;;;18.92;10.30;;;;;;;;;;2064251;28;20375;-76
2020/12/19 05:32:32;;;;;;;21.10;9.70;;;;;;;;;;2062725;28;20023;-77
2020/12/19 05:33:51;;;;;;;16.17;9.32;;;;;;;;;;2063937;28;20387;-76
2020/12/19 05:35:10;;;;;;;19.48;10.30;;;;;;;;;;2062215;28;20034;-76
2020/12/19 05:36:29;;;;;;;13.57;9.38;;;;;;;;;;2060753;28;20162;-74
2020/12/19 05:37:58;;;;;;;13.73;9.80;;;;;;;;;;2054244;28;20026;-75
2020/12/19 05:39:18;;;;;;;18.38;10.93;;;;;;;;;;2061530;28;20038;-75
2020/12/19 05:40:38;;;;;;;18.38;9.48;;;;;;;;;;2063905;28;20034;-75
2020/12/19 05:41:57;;;;;;;22.63;11.13;;;;;;;;;;2060800;28;20035;-73
2020/12/19 05:43:16;;;;;;;17.08;10.65;;;;;;;;;;2058102;28;20069;-74
2020/12/19 05:44:41;;;;;;;21.77;10.35;;;;;;;;;;2060819;28;20034;-74
2020/12/19 05:45:59;;;;;;;21.27;10.63;;;;;;;;;;2065153;28;20460;-77
2020/12/19 05:47:18;;;;;;;15.50;11.07;;;;;;;;;;2062477;28;20022;-77
2020/12/19 05:48:37;;;;;;;21.50;9.93;;;;;;;;;;2060580;28;20121;-75
2020/12/19 05:49:56;;;;;;;14.15;9.98;;;;;;;;;;2064652;28;20030;-75
2020/12/19 05:51:15;;;;;;;19.85;10.45;;;;;;;;;;2065348;28;20018;-77
2020/12/19 05:52:35;;;;;;;19.20;10.27;;;;;;;;;;2064579;28;20046;-77
2020/12/19 05:53:59;;;;;;;19.48;10.25;;;;;;;;;;2061701;28;20030;-73
2020/12/19 05:55:19;;;;;;;16.10;8.98;;;;;;;;;;2064793;28;20027;-76
2020/12/19 05:56:42;;;;;;;20.63;10.00;;;;;;;;;;2064033;28;20054;-77
2020/12/19 05:58:03;;;;;;;18.10;10.02;;;;;;;;;;2068044;28;20501;-77
2020/12/19 05:59:23;;;;;;;14.43;9.48;;;;;;;;;;2064835;28;21545;-77
2020/12/19 06:00:42;;;;;;;20.83;10.02;;;;;;;;;;2062939;28;20530;-68
2020/12/19 06:02:02;;;;;;;22.20;10.60;;;;;;;;;;2064517;28;20438;-67
2020/12/19 06:03:21;;;;;;;17.58;10.27;;;;;;;;;;2065319;28;20038;-68
2020/12/19 06:04:40;;;;;;;15.52;9.40;;;;;;;;;;2061054;28;20454;-68
2020/12/19 06:05:59;;;;;;;14.63;9.80;;;;;;;;;;2063266;28;20034;-68
2020/12/19 06:07:18;;;;;;;16.40;10.13;;;;;;;;;;2064771;28;20030;-68
2020/12/19 06:08:37;;;;;;;19.05;9.43;;;;;;;;;;2062896;28;20414;-69
2020/12/19 06:09:56;;;;;;;17.63;10.57;;;;;;;;;;2058165;28;20030;-68
2020/12/19 06:11:16;;;;;;;20.20;9.80;;;;;;;;;;2059147;28;20415;-68
2020/12/19 06:12:50;;;;;;;18.58;10.95;;;;;;;;;;2060159;28;20022;-68
2020/12/19 06:14:14;;;;;;;21.42;10.15;;;;;;;;;;2060937;28;20034;-69
2020/12/19 06:15:48;;;;;;;14.77;10.30;;;;;;;;;;2064619;28;20097;-68
2020/12/19 06:17:20;;;;;;;13.35;8.90;;;;;;;;;;2064075;28;20026;-69
2020/12/19 06:18:48;;;;;;;22.38;10.40;;;;;;;;;;2062946;28;20109;-68
2020/12/19 06:20:08;;;;;;;19.73;10.70;;;;;;;;;;2062906;28;20030;-68
2020/12/19 06:21:27;;;;;;;17.83;10.73;;;;;;;;;;2062167;28;20026;-68
2020/12/19 06:22:46;;;;;;;15.07;10.07;;;;;;;;;;2064669;28;20034;-68
2020/12/19 06:24:05;;;;;;;21.00;11.15;;;;;;;;;;2060655;28;20026;-69
2020/12/19 06:25:40;;;;;;;20.48;10.20;;;;;;;;;;2064359;28;20061;-68
2020/12/19 06:26:59;;;;;;;23.67;10.23;;;;;;;;;;2063306;28;20054;-69
2020/12/19 06:28:38;;;;;;;21.13;10.30;;;;;;;;;;2063347;28;20035;-68
2020/12/19 06:29:57;;;;;;;12.80;9.90;;;;;;;;;;2058711;28;20128;-68
2020/12/19 06:31:17;;;;;;;18.67;10.32;;;;;;;;;;2061381;28;20035;-68
2020/12/19 06:32:36;;;;;;;17.00;10.15;;;;;;;;;;2062820;28;20027;-68
2020/12/19 06:33:55;;;;;;;20.92;10.00;;;;;;;;;;2059596;28;20022;-69
2020/12/19 06:35:14;;;;;;;16.23;10.77;;;;;;;;;;2063553;28;20018;-69
2020/12/19 06:36:33;;;;;;;18.70;11.07;;;;;;;;;;2064031;28;20044;-69
2020/12/19 06:37:52;;;;;;;16.05;10.35;;;;;;;;;;2061039;28;20030;-69
2020/12/19 06:39:11;;;;;;;19.65;10.93;;;;;;;;;;2063831;28;20022;-69
2020/12/19 06:40:36;;;;;;;19.20;10.63;;;;;;;;;;2064092;28;20023;-70
2020/12/19 06:41:58;;;;;;;17.20;10.40;;;;;;;;;;2061224;28;20480;-69
2020/12/19 06:43:17;;;;;;;17.02;10.60;;;;;;;;;;2061477;28;20030;-69
2020/12/19 06:44:36;;;;;;;17.38;10.40;;;;;;;;;;2061044;28;20023;-68
2020/12/19 06:45:55;;;;;;;21.73;11.05;;;;;;;;;;2065395;28;20394;-68
2020/12/19 06:47:18;;;;;;;19.17;11.27;;;;;;;;;;2060137;28;20038;-69
2020/12/19 06:48:37;;;;;;;18.88;10.15;;;;;;;;;;2057319;28;22149;-68
2020/12/19 06:49:56;;;;;;;20.70;10.70;;;;;;;;;;2061690;28;20403;-69
2020/12/19 06:51:15;;;;;;;17.10;9.73;;;;;;;;;;2064205;28;20538;-69
2020/12/19 06:52:35;;;;;;;19.92;10.32;;;;;;;;;;2063624;28;20101;-69
2020/12/19 06:53:54;;;;;;;16.73;10.75;;;;;;;;;;2063446;28;20027;-69
2020/12/19 06:55:24;;;;;;;20.33;11.98;;;;;;;;;;2061303;28;20026;-70
2020/12/19 06:56:43;;;;;;;21.52;10.40;;;;;;;;;;2063153;28;20027;-69
2020/12/19 06:58:02;;;;;;;19.02;10.98;;;;;;;;;;2063607;28;20102;-69
2020/12/19 06:59:21;;;;;;;19.13;10.23;;;;;;;;;;2060821;28;20443;-70
2020/12/19 07:00:40;;;;;;;19.95;11.40;;;;;;;;;;2056910;28;20038;-70
2020/12/19 07:02:32;;;;;;;20.38;10.90;;;;;;;;;;2065107;28;20027;-70
2020/12/19 07:03:51;;;;;;;17.00;10.68;;;;;;;;;;2032523;29;20025;-69
2020/12/19 07:05:17;;;;;;;19.67;10.43;;;;;;;;;;2061801;28;20034;-70
2020/12/19 07:06:36;;;;;;;20.80;11.02;;;;;;;;;;2066039;28;20038;-70
2020/12/19 07:08:14;;;;;;;20.33;11.30;;;;;;;;;;2061326;28;20453;-70
2020/12/19 07:09:33;;;;;;;22.85;10.68;;;;;;;;;;2057007;28;20035;-70
2020/12/19 07:10:52;;;;;;;19.55;11.50;;;;;;;;;;2058872;28;20034;-71
2020/12/19 07:12:30;;;;;;;21.45;11.35;;;;;;;;;;2060044;28;20030;-70
2020/12/19 07:13:53;;;;;;;21.30;11.38;;;;;;;;;;2064396;28;20026;-70
2020/12/19 07:15:32;;;;;;;23.83;11.25;;;;;;;;;;2059411;28;20499;-70
2020/12/19 07:16:51;;;;;;;24.77;11.48;;;;;;;;;;2061736;28;20034;-70
2020/12/19 07:18:23;;;;;;;21.60;11.90;;;;;;;;;;2063616;28;20026;-70
2020/12/19 07:19:42;;;;;;;24.98;10.70;;;;;;;;;;2064582;28;20035;-69
2020/12/19 07:21:02;;;;;;;23.05;10.82;;;;;;;;;;2058476;28;20023;-70
2020/12/19 07:22:23;;;;;;;24.50;10.98;;;;;;;;;;2064930;28;20444;-70
2020/12/19 07:23:43;;;;;;;22.35;11.38;;;;;;;;;;2062948;28;20486;-70
2020/12/19 07:25:02;;;;;;;19.05;11.45;;;;;;;;;;2061556;28;20109;-70
2020/12/19 07:26:21;;;;;;;25.23;12.18;;;;;;;;;;2059376;28;20066;-70
2020/12/19 07:27:40;;;;;;;19.67;11.35;;;;;;;;;;2055744;28;20042;-71
2020/12/19 07:28:59;;;;;;;26.10;11.40;;;;;;;;;;2062482;28;20034;-71
2020/12/19 07:30:18;;;;;;;23.48;12.18;;;;;;;;;;2062842;28;20026;-69
2020/12/19 07:31:38;;;;;;;16.52;11.07;;;;;;;;;;2062838;28;20503;-70
2020/12/19 07:32:56;;;;;;;28.13;12.05;;;;;;;;;;2065538;28;20026;-70
2020/12/19 07:34:15;;;;;;;23.30;11.88;;;;;;;;;;2064129;28;20026;-70
2020/12/19 07:35:35;;;;;;;20.55;11.38;;;;;;;;;;2063213;28;20030;-70
2020/12/19 07:36:54;;;;;;;25.23;12.63;;;;;;;;;;2064587;28;20026;-70
2020/12/19 07:38:13;;;;;;;20.65;11.38;;;;;;;;;;2064935;28;20030;-69
2020/12/19 07:39:32;;;;;;;22.30;11.25;;;;;;;;;;2060433;28;20027;-69
2020/12/19 07:40:54;;;;;;;20.58;10.20;;;;;;;;;;2063785;28;20030;-69
2020/12/19 07:42:14;;;;;;;22.05;12.10;;;;;;;;;;2065645;28;20038;-69
2020/12/19 07:43:32;;;;;;;25.80;12.15;;;;;;;;;;2059629;28;20454;-70
2020/12/19 07:44:51;;;;;;;22.67;11.55;;;;;;;;;;2059851;28;20038;-70
2020/12/19 07:46:10;;;;;;;24.65;12.70;;;;;;;;;;2061140;28;20074;-70
2020/12/19 07:47:29;;;;;;;20.25;11.55;;;;;;;;;;2060833;28;20050;-69
2020/12/19 07:48:54;;;;;;;23.27;11.93;;;;;;;;;;2060886;28;20038;-69
2020/12/19 07:50:21;;;;;;;22.08;12.68;;;;;;;;;;2062313;28;20553;-69
2020/12/19 07:51:40;;;;;;;20.85;11.50;;;;;;;;;;2064161;28;20026;-69